Aviation Digital Data Service (ADDS)

Output produced by METARs form (2353 UTC 18 July 2018)
found at http://www.aviationweather.gov/adds/metars/
 
LHBP 182330Z 28011KT 9999 -SHRA FEW015 SCT075 BKN095 18/18 Q1009 NOSIG
LHBP 182300Z 28012KT 9999 -SHRA NSC 18/18 Q1009 NOSIG
LHBP 182230Z 29010KT 9999 -SHRA FEW015 SCT060 BKN095 18/18 Q1009 NOSIG
LHBP 182200Z 31011KT 9999 SHRA FEW015 SCT060TCU OVC090 18/18 Q1009 NOSIG
LHBP 182130Z 32013KT 9999 SHRA FEW015 SCT060TCU OVC100 19/17 Q1008 NOSIG
LHBP 182114Z 31013KT 9999 SHRA FEW018 SCT060TCU OVC090 19/18 Q1008 NOSIG
LHBP 182100Z 32013KT 9999 -SHRA FEW018 SCT050 OVC090 19/18 Q1008 NOSIG
LHBP 182030Z 32015KT 9999 -SHRA FEW020 SCT070 BKN090 19/17 Q1008 NOSIG
LHBP 182000Z 32017G27KT 9999 -SHRA FEW020 SCT075 BKN100 20/17 Q1008 NOSIG
LHBP 181930Z 31016KT 9999 -SHRA FEW020 SCT075 BKN100 20/17 Q1008 NOSIG
LHBP 181900Z 31018KT 9999 VCSH FEW020 SCT081 BKN110 20/17 Q1008 NOSIG
LHBP 181830Z 31019KT 9999 FEW023 BKN110 20/17 Q1008 NOSIG
LHBP 181800Z 31020KT 9999 SCT023 BKN110 20/18 Q1008 NOSIG